sensor_id;sensor_type;location;lat;lon;timestamp;P1;durP1;ratioP1;P2;durP2;ratioP2
32393;SDS011;18853;45.426;9.206;2023-03-05T00:02:06;50.58;;;33.30;;
32393;SDS011;18853;45.426;9.206;2023-03-05T00:04:32;49.60;;;34.70;;
32393;SDS011;18853;45.426;9.206;2023-03-05T00:06:58;50.50;;;34.45;;
32393;SDS011;18853;45.426;9.206;2023-03-05T00:09:23;51.85;;;35.75;;
32393;SDS011;18853;45.426;9.206;2023-03-05T00:11:49;51.47;;;35.83;;
32393;SDS011;18853;45.426;9.206;2023-03-05T00:14:15;52.95;;;34.83;;
32393;SDS011;18853;45.426;9.206;2023-03-05T00:16:40;51.83;;;35.92;;
32393;SDS011;18853;45.426;9.206;2023-03-05T00:19:06;52.00;;;36.30;;
32393;SDS011;18853;45.426;9.206;2023-03-05T00:21:35;52.60;;;36.80;;
32393;SDS011;18853;45.426;9.206;2023-03-05T00:24:04;54.80;;;37.47;;
32393;SDS011;18853;45.426;9.206;2023-03-05T00:26:36;57.22;;;39.05;;
32393;SDS011;18853;45.426;9.206;2023-03-05T00:29:03;58.38;;;39.22;;
32393;SDS011;18853;45.426;9.206;2023-03-05T00:31:31;60.25;;;40.20;;
32393;SDS011;18853;45.426;9.206;2023-03-05T00:34:08;58.42;;;39.63;;
32393;SDS011;18853;45.426;9.206;2023-03-05T00:36:38;59.65;;;40.78;;
32393;SDS011;18853;45.426;9.206;2023-03-05T00:39:05;57.30;;;40.92;;
32393;SDS011;18853;45.426;9.206;2023-03-05T00:41:30;65.05;;;42.63;;
32393;SDS011;18853;45.426;9.206;2023-03-05T00:43:56;59.13;;;41.42;;
32393;SDS011;18853;45.426;9.206;2023-03-05T00:46:22;65.53;;;43.75;;
32393;SDS011;18853;45.426;9.206;2023-03-05T00:48:50;61.58;;;43.53;;
32393;SDS011;18853;45.426;9.206;2023-03-05T00:51:16;69.10;;;45.13;;
32393;SDS011;18853;45.426;9.206;2023-03-05T00:53:43;62.60;;;43.55;;
32393;SDS011;18853;45.426;9.206;2023-03-05T00:56:09;65.78;;;44.00;;
32393;SDS011;18853;45.426;9.206;2023-03-05T00:58:34;64.25;;;44.25;;
32393;SDS011;18853;45.426;9.206;2023-03-05T01:01:00;61.58;;;43.20;;
32393;SDS011;18853;45.426;9.206;2023-03-05T01:03:27;61.83;;;43.45;;
32393;SDS011;18853;45.426;9.206;2023-03-05T01:05:53;61.90;;;43.38;;
32393;SDS011;18853;45.426;9.206;2023-03-05T01:08:20;62.78;;;43.97;;
32393;SDS011;18853;45.426;9.206;2023-03-05T01:10:46;65.05;;;45.05;;
32393;SDS011;18853;45.426;9.206;2023-03-05T01:13:11;62.78;;;43.47;;
32393;SDS011;18853;45.426;9.206;2023-03-05T01:15:37;67.95;;;44.95;;
32393;SDS011;18853;45.426;9.206;2023-03-05T01:18:03;67.82;;;45.80;;
32393;SDS011;18853;45.426;9.206;2023-03-05T01:20:28;67.40;;;44.40;;
32393;SDS011;18853;45.426;9.206;2023-03-05T01:22:54;61.72;;;43.50;;
32393;SDS011;18853;45.426;9.206;2023-03-05T01:25:20;64.03;;;43.67;;
32393;SDS011;18853;45.426;9.206;2023-03-05T01:27:45;64.38;;;45.30;;
32393;SDS011;18853;45.426;9.206;2023-03-05T01:30:12;65.38;;;44.80;;
32393;SDS011;18853;45.426;9.206;2023-03-05T01:32:39;67.95;;;45.40;;
32393;SDS011;18853;45.426;9.206;2023-03-05T01:35:04;65.60;;;44.78;;
32393;SDS011;18853;45.426;9.206;2023-03-05T01:37:31;67.10;;;45.80;;
32393;SDS011;18853;45.426;9.206;2023-03-05T01:39:56;65.40;;;45.90;;
32393;SDS011;18853;45.426;9.206;2023-03-05T01:42:22;63.80;;;45.53;;
32393;SDS011;18853;45.426;9.206;2023-03-05T01:47:49;58.53;;;43.65;;
32393;SDS011;18853;45.426;9.206;2023-03-05T01:50:16;62.42;;;44.80;;
32393;SDS011;18853;45.426;9.206;2023-03-05T01:52:45;62.65;;;44.78;;
32393;SDS011;18853;45.426;9.206;2023-03-05T01:55:18;67.78;;;46.72;;
32393;SDS011;18853;45.426;9.206;2023-03-05T01:57:51;62.65;;;44.50;;
32393;SDS011;18853;45.426;9.206;2023-03-05T02:00:26;66.00;;;44.20;;
32393;SDS011;18853;45.426;9.206;2023-03-05T02:02:56;64.28;;;44.90;;
32393;SDS011;18853;45.426;9.206;2023-03-05T02:05:26;62.63;;;46.42;;
32393;SDS011;18853;45.426;9.206;2023-03-05T02:07:58;64.15;;;45.58;;
32393;SDS011;18853;45.426;9.206;2023-03-05T02:10:32;63.13;;;45.22;;
32393;SDS011;18853;45.426;9.206;2023-03-05T02:13:07;60.75;;;44.53;;
32393;SDS011;18853;45.426;9.206;2023-03-05T02:15:38;61.80;;;45.38;;
32393;SDS011;18853;45.426;9.206;2023-03-05T02:18:05;59.95;;;42.70;;
32393;SDS011;18853;45.426;9.206;2023-03-05T02:23:29;64.90;;;45.65;;
32393;SDS011;18853;45.426;9.206;2023-03-05T02:26:00;65.80;;;45.30;;
32393;SDS011;18853;45.426;9.206;2023-03-05T02:31:01;69.85;;;46.70;;
32393;SDS011;18853;45.426;9.206;2023-03-05T02:33:32;69.85;;;47.20;;
32393;SDS011;18853;45.426;9.206;2023-03-05T02:35:58;68.55;;;46.90;;
32393;SDS011;18853;45.426;9.206;2023-03-05T02:38:24;67.85;;;46.50;;
32393;SDS011;18853;45.426;9.206;2023-03-05T02:40:49;67.18;;;47.13;;
32393;SDS011;18853;45.426;9.206;2023-03-05T02:43:15;70.50;;;47.53;;
32393;SDS011;18853;45.426;9.206;2023-03-05T02:45:40;66.40;;;47.08;;
32393;SDS011;18853;45.426;9.206;2023-03-05T02:48:06;67.55;;;46.03;;
32393;SDS011;18853;45.426;9.206;2023-03-05T02:50:32;73.18;;;47.80;;
32393;SDS011;18853;45.426;9.206;2023-03-05T02:52:59;71.57;;;47.78;;
32393;SDS011;18853;45.426;9.206;2023-03-05T02:55:24;68.60;;;47.15;;
32393;SDS011;18853;45.426;9.206;2023-03-05T02:57:50;63.40;;;45.78;;
32393;SDS011;18853;45.426;9.206;2023-03-05T03:00:16;66.72;;;47.75;;
32393;SDS011;18853;45.426;9.206;2023-03-05T03:02:42;72.00;;;48.67;;
32393;SDS011;18853;45.426;9.206;2023-03-05T03:05:07;68.38;;;48.63;;
32393;SDS011;18853;45.426;9.206;2023-03-05T03:07:33;70.50;;;49.13;;
32393;SDS011;18853;45.426;9.206;2023-03-05T03:10:00;72.97;;;49.42;;
32393;SDS011;18853;45.426;9.206;2023-03-05T03:12:27;75.53;;;48.78;;
32393;SDS011;18853;45.426;9.206;2023-03-05T03:14:53;70.43;;;49.35;;
32393;SDS011;18853;45.426;9.206;2023-03-05T03:17:18;67.82;;;48.17;;
32393;SDS011;18853;45.426;9.206;2023-03-05T03:19:44;71.95;;;48.33;;
32393;SDS011;18853;45.426;9.206;2023-03-05T03:22:11;69.07;;;48.28;;
32393;SDS011;18853;45.426;9.206;2023-03-05T03:24:39;67.80;;;47.22;;
32393;SDS011;18853;45.426;9.206;2023-03-05T03:27:05;69.18;;;46.78;;
32393;SDS011;18853;45.426;9.206;2023-03-05T03:29:31;64.30;;;45.65;;
32393;SDS011;18853;45.426;9.206;2023-03-05T03:31:57;63.95;;;44.70;;
32393;SDS011;18853;45.426;9.206;2023-03-05T03:34:23;65.03;;;44.83;;
32393;SDS011;18853;45.426;9.206;2023-03-05T03:36:49;67.28;;;45.53;;
32393;SDS011;18853;45.426;9.206;2023-03-05T03:39:17;68.53;;;47.03;;
32393;SDS011;18853;45.426;9.206;2023-03-05T03:41:44;65.13;;;43.95;;
32393;SDS011;18853;45.426;9.206;2023-03-05T03:44:11;65.03;;;45.15;;
32393;SDS011;18853;45.426;9.206;2023-03-05T03:46:37;69.43;;;47.47;;
32393;SDS011;18853;45.426;9.206;2023-03-05T03:49:05;65.05;;;45.25;;
32393;SDS011;18853;45.426;9.206;2023-03-05T03:51:32;69.40;;;47.63;;
32393;SDS011;18853;45.426;9.206;2023-03-05T03:53:58;67.78;;;47.97;;
32393;SDS011;18853;45.426;9.206;2023-03-05T03:56:24;72.10;;;49.65;;
32393;SDS011;18853;45.426;9.206;2023-03-05T03:58:51;73.60;;;49.38;;
32393;SDS011;18853;45.426;9.206;2023-03-05T04:01:18;72.03;;;49.28;;
32393;SDS011;18853;45.426;9.206;2023-03-05T04:03:44;70.43;;;47.72;;
32393;SDS011;18853;45.426;9.206;2023-03-05T04:06:10;73.07;;;49.45;;
32393;SDS011;18853;45.426;9.206;2023-03-05T04:08:36;68.82;;;47.53;;
32393;SDS011;18853;45.426;9.206;2023-03-05T04:11:01;65.82;;;47.35;;
32393;SDS011;18853;45.426;9.206;2023-03-05T04:13:27;69.85;;;47.50;;
32393;SDS011;18853;45.426;9.206;2023-03-05T04:15:53;69.88;;;47.67;;
32393;SDS011;18853;45.426;9.206;2023-03-05T04:18:19;67.93;;;47.42;;
32393;SDS011;18853;45.426;9.206;2023-03-05T04:20:45;70.60;;;47.47;;
32393;SDS011;18853;45.426;9.206;2023-03-05T04:23:11;68.43;;;47.03;;
32393;SDS011;18853;45.426;9.206;2023-03-05T04:25:37;69.82;;;46.30;;
32393;SDS011;18853;45.426;9.206;2023-03-05T04:28:02;66.57;;;48.75;;
32393;SDS011;18853;45.426;9.206;2023-03-05T04:30:28;68.60;;;45.45;;
32393;SDS011;18853;45.426;9.206;2023-03-05T04:32:55;65.45;;;45.63;;
32393;SDS011;18853;45.426;9.206;2023-03-05T04:35:21;66.53;;;47.75;;
32393;SDS011;18853;45.426;9.206;2023-03-05T04:37:47;69.13;;;45.33;;
32393;SDS011;18853;45.426;9.206;2023-03-05T04:40:12;64.38;;;44.45;;
32393;SDS011;18853;45.426;9.206;2023-03-05T04:42:38;63.55;;;44.65;;
32393;SDS011;18853;45.426;9.206;2023-03-05T04:45:04;69.82;;;46.15;;
32393;SDS011;18853;45.426;9.206;2023-03-05T04:47:32;65.85;;;45.83;;
32393;SDS011;18853;45.426;9.206;2023-03-05T04:49:58;66.32;;;44.53;;
32393;SDS011;18853;45.426;9.206;2023-03-05T04:52:23;64.88;;;44.58;;
32393;SDS011;18853;45.426;9.206;2023-03-05T04:54:49;62.90;;;44.35;;
32393;SDS011;18853;45.426;9.206;2023-03-05T04:57:15;66.43;;;45.63;;
32393;SDS011;18853;45.426;9.206;2023-03-05T04:59:40;64.35;;;45.35;;
32393;SDS011;18853;45.426;9.206;2023-03-05T05:02:06;65.13;;;46.25;;
32393;SDS011;18853;45.426;9.206;2023-03-05T05:04:32;60.72;;;44.00;;
32393;SDS011;18853;45.426;9.206;2023-03-05T05:06:59;63.30;;;43.50;;
32393;SDS011;18853;45.426;9.206;2023-03-05T05:09:25;63.90;;;43.13;;
32393;SDS011;18853;45.426;9.206;2023-03-05T05:11:51;60.30;;;42.47;;
32393;SDS011;18853;45.426;9.206;2023-03-05T05:14:16;62.45;;;43.47;;
32393;SDS011;18853;45.426;9.206;2023-03-05T05:16:42;63.75;;;44.88;;
32393;SDS011;18853;45.426;9.206;2023-03-05T05:19:08;60.72;;;44.70;;
32393;SDS011;18853;45.426;9.206;2023-03-05T05:21:33;62.05;;;45.08;;
32393;SDS011;18853;45.426;9.206;2023-03-05T05:23:59;64.40;;;44.08;;
32393;SDS011;18853;45.426;9.206;2023-03-05T05:26:25;64.03;;;45.72;;
32393;SDS011;18853;45.426;9.206;2023-03-05T05:28:51;63.25;;;44.75;;
32393;SDS011;18853;45.426;9.206;2023-03-05T05:31:17;64.15;;;45.05;;
32393;SDS011;18853;45.426;9.206;2023-03-05T05:33:43;65.97;;;45.85;;
32393;SDS011;18853;45.426;9.206;2023-03-05T05:36:10;72.35;;;46.95;;
32393;SDS011;18853;45.426;9.206;2023-03-05T05:38:37;65.03;;;46.08;;
32393;SDS011;18853;45.426;9.206;2023-03-05T05:41:04;67.43;;;46.20;;
32393;SDS011;18853;45.426;9.206;2023-03-05T05:43:31;70.28;;;46.90;;
32393;SDS011;18853;45.426;9.206;2023-03-05T05:46:00;63.90;;;46.05;;
32393;SDS011;18853;45.426;9.206;2023-03-05T05:48:29;67.65;;;47.40;;
32393;SDS011;18853;45.426;9.206;2023-03-05T05:50:56;73.78;;;47.85;;
32393;SDS011;18853;45.426;9.206;2023-03-05T05:53:21;72.55;;;48.50;;
32393;SDS011;18853;45.426;9.206;2023-03-05T05:55:47;63.67;;;46.17;;
32393;SDS011;18853;45.426;9.206;2023-03-05T05:58:13;67.75;;;46.45;;
32393;SDS011;18853;45.426;9.206;2023-03-05T06:00:39;70.82;;;47.88;;
32393;SDS011;18853;45.426;9.206;2023-03-05T06:03:04;64.63;;;45.45;;
32393;SDS011;18853;45.426;9.206;2023-03-05T06:05:31;68.18;;;46.30;;
32393;SDS011;18853;45.426;9.206;2023-03-05T06:07:57;68.00;;;45.97;;
32393;SDS011;18853;45.426;9.206;2023-03-05T06:10:23;62.00;;;44.58;;
32393;SDS011;18853;45.426;9.206;2023-03-05T06:12:49;65.15;;;45.30;;
32393;SDS011;18853;45.426;9.206;2023-03-05T06:15:14;70.38;;;46.75;;
32393;SDS011;18853;45.426;9.206;2023-03-05T06:17:40;68.57;;;48.60;;
32393;SDS011;18853;45.426;9.206;2023-03-05T06:20:06;69.15;;;48.05;;
32393;SDS011;18853;45.426;9.206;2023-03-05T06:22:36;64.88;;;47.42;;
32393;SDS011;18853;45.426;9.206;2023-03-05T06:25:03;66.22;;;47.10;;
32393;SDS011;18853;45.426;9.206;2023-03-05T06:27:29;64.65;;;44.90;;
32393;SDS011;18853;45.426;9.206;2023-03-05T06:29:55;63.53;;;44.58;;
32393;SDS011;18853;45.426;9.206;2023-03-05T06:32:20;65.18;;;45.95;;
32393;SDS011;18853;45.426;9.206;2023-03-05T06:34:47;63.33;;;46.10;;
32393;SDS011;18853;45.426;9.206;2023-03-05T06:37:13;66.47;;;46.40;;
32393;SDS011;18853;45.426;9.206;2023-03-05T06:39:39;69.50;;;48.13;;
32393;SDS011;18853;45.426;9.206;2023-03-05T06:42:04;69.72;;;48.97;;
32393;SDS011;18853;45.426;9.206;2023-03-05T06:44:30;69.55;;;48.80;;
32393;SDS011;18853;45.426;9.206;2023-03-05T06:46:56;70.03;;;48.55;;
32393;SDS011;18853;45.426;9.206;2023-03-05T06:49:21;70.47;;;47.13;;
32393;SDS011;18853;45.426;9.206;2023-03-05T06:51:47;69.05;;;47.63;;
32393;SDS011;18853;45.426;9.206;2023-03-05T06:54:13;74.65;;;50.92;;
32393;SDS011;18853;45.426;9.206;2023-03-05T06:56:41;70.85;;;48.10;;
32393;SDS011;18853;45.426;9.206;2023-03-05T06:59:09;71.72;;;49.60;;
32393;SDS011;18853;45.426;9.206;2023-03-05T07:01:36;72.25;;;49.72;;
32393;SDS011;18853;45.426;9.206;2023-03-05T07:04:02;73.97;;;49.30;;
32393;SDS011;18853;45.426;9.206;2023-03-05T07:06:30;68.30;;;49.00;;
32393;SDS011;18853;45.426;9.206;2023-03-05T07:08:58;69.53;;;47.72;;
32393;SDS011;18853;45.426;9.206;2023-03-05T07:11:25;72.57;;;49.45;;
32393;SDS011;18853;45.426;9.206;2023-03-05T07:13:51;68.40;;;48.88;;
32393;SDS011;18853;45.426;9.206;2023-03-05T07:16:21;71.60;;;50.08;;
32393;SDS011;18853;45.426;9.206;2023-03-05T07:18:48;71.97;;;49.85;;
32393;SDS011;18853;45.426;9.206;2023-03-05T07:21:15;73.57;;;49.20;;
32393;SDS011;18853;45.426;9.206;2023-03-05T07:23:43;73.32;;;50.08;;
32393;SDS011;18853;45.426;9.206;2023-03-05T07:26:09;68.07;;;49.45;;
32393;SDS011;18853;45.426;9.206;2023-03-05T07:28:35;77.05;;;54.55;;
32393;SDS011;18853;45.426;9.206;2023-03-05T07:31:02;84.10;;;56.47;;
32393;SDS011;18853;45.426;9.206;2023-03-05T07:33:29;82.30;;;56.55;;
32393;SDS011;18853;45.426;9.206;2023-03-05T07:35:55;84.75;;;57.85;;
32393;SDS011;18853;45.426;9.206;2023-03-05T07:38:21;79.20;;;54.25;;
32393;SDS011;18853;45.426;9.206;2023-03-05T07:40:47;79.45;;;54.75;;
32393;SDS011;18853;45.426;9.206;2023-03-05T07:43:13;79.55;;;55.67;;
32393;SDS011;18853;45.426;9.206;2023-03-05T07:45:39;80.47;;;55.20;;
32393;SDS011;18853;45.426;9.206;2023-03-05T07:48:06;81.90;;;56.67;;
32393;SDS011;18853;45.426;9.206;2023-03-05T07:50:32;80.75;;;54.05;;
32393;SDS011;18853;45.426;9.206;2023-03-05T07:52:58;81.07;;;54.03;;
32393;SDS011;18853;45.426;9.206;2023-03-05T07:55:24;82.63;;;55.40;;
32393;SDS011;18853;45.426;9.206;2023-03-05T07:57:49;74.88;;;52.60;;
32393;SDS011;18853;45.426;9.206;2023-03-05T08:00:15;77.43;;;51.50;;
32393;SDS011;18853;45.426;9.206;2023-03-05T08:02:41;72.90;;;51.97;;
32393;SDS011;18853;45.426;9.206;2023-03-05T08:05:07;76.57;;;51.83;;
32393;SDS011;18853;45.426;9.206;2023-03-05T08:07:32;76.10;;;53.58;;
32393;SDS011;18853;45.426;9.206;2023-03-05T08:09:58;79.72;;;53.00;;
32393;SDS011;18853;45.426;9.206;2023-03-05T08:12:24;74.70;;;53.85;;
32393;SDS011;18853;45.426;9.206;2023-03-05T08:14:49;80.07;;;53.20;;
32393;SDS011;18853;45.426;9.206;2023-03-05T08:17:15;79.53;;;53.75;;
32393;SDS011;18853;45.426;9.206;2023-03-05T08:19:41;77.60;;;54.78;;
32393;SDS011;18853;45.426;9.206;2023-03-05T08:22:09;79.47;;;53.45;;
32393;SDS011;18853;45.426;9.206;2023-03-05T08:24:35;77.00;;;53.03;;
32393;SDS011;18853;45.426;9.206;2023-03-05T08:27:01;76.78;;;51.20;;
32393;SDS011;18853;45.426;9.206;2023-03-05T08:29:26;69.40;;;49.00;;
32393;SDS011;18853;45.426;9.206;2023-03-05T08:31:52;70.82;;;46.78;;
32393;SDS011;18853;45.426;9.206;2023-03-05T08:34:21;65.63;;;46.58;;
32393;SDS011;18853;45.426;9.206;2023-03-05T08:36:47;66.57;;;45.63;;
32393;SDS011;18853;45.426;9.206;2023-03-05T08:39:13;66.18;;;46.50;;
32393;SDS011;18853;45.426;9.206;2023-03-05T08:41:39;73.28;;;48.10;;
32393;SDS011;18853;45.426;9.206;2023-03-05T08:44:04;73.43;;;47.03;;
32393;SDS011;18853;45.426;9.206;2023-03-05T08:46:30;68.65;;;48.45;;
32393;SDS011;18853;45.426;9.206;2023-03-05T08:48:56;71.53;;;47.03;;
32393;SDS011;18853;45.426;9.206;2023-03-05T08:51:22;74.10;;;49.58;;
32393;SDS011;18853;45.426;9.206;2023-03-05T08:53:49;74.38;;;50.20;;
32393;SDS011;18853;45.426;9.206;2023-03-05T08:56:16;75.72;;;50.03;;
32393;SDS011;18853;45.426;9.206;2023-03-05T08:58:42;76.10;;;50.97;;
32393;SDS011;18853;45.426;9.206;2023-03-05T09:01:10;83.78;;;51.13;;
32393;SDS011;18853;45.426;9.206;2023-03-05T09:03:36;71.18;;;49.10;;
32393;SDS011;18853;45.426;9.206;2023-03-05T09:06:04;77.18;;;50.80;;
32393;SDS011;18853;45.426;9.206;2023-03-05T09:08:32;80.03;;;53.80;;
32393;SDS011;18853;45.426;9.206;2023-03-05T09:11:00;74.95;;;50.08;;
32393;SDS011;18853;45.426;9.206;2023-03-05T09:13:27;75.43;;;49.05;;
32393;SDS011;18853;45.426;9.206;2023-03-05T09:15:56;76.70;;;53.30;;
32393;SDS011;18853;45.426;9.206;2023-03-05T09:18:27;76.53;;;51.13;;
32393;SDS011;18853;45.426;9.206;2023-03-05T09:20:53;82.65;;;52.50;;
32393;SDS011;18853;45.426;9.206;2023-03-05T09:23:19;75.30;;;52.53;;
32393;SDS011;18853;45.426;9.206;2023-03-05T09:25:45;70.65;;;49.80;;
32393;SDS011;18853;45.426;9.206;2023-03-05T09:28:11;74.80;;;50.50;;
32393;SDS011;18853;45.426;9.206;2023-03-05T09:30:37;73.32;;;51.10;;
32393;SDS011;18853;45.426;9.206;2023-03-05T09:33:03;75.05;;;48.85;;
32393;SDS011;18853;45.426;9.206;2023-03-05T09:35:29;74.20;;;49.95;;
32393;SDS011;18853;45.426;9.206;2023-03-05T09:37:57;72.75;;;49.97;;
32393;SDS011;18853;45.426;9.206;2023-03-05T09:40:23;81.82;;;54.13;;
32393;SDS011;18853;45.426;9.206;2023-03-05T09:45:32;77.72;;;52.92;;
32393;SDS011;18853;45.426;9.206;2023-03-05T09:50:51;72.75;;;50.90;;
32393;SDS011;18853;45.426;9.206;2023-03-05T09:56:14;76.53;;;50.25;;
32393;SDS011;18853;45.426;9.206;2023-03-05T09:58:44;75.78;;;50.55;;
32393;SDS011;18853;45.426;9.206;2023-03-05T10:01:17;64.72;;;44.60;;
32393;SDS011;18853;45.426;9.206;2023-03-05T10:03:49;74.85;;;47.83;;
32393;SDS011;18853;45.426;9.206;2023-03-05T10:06:21;72.15;;;48.58;;
32393;SDS011;18853;45.426;9.206;2023-03-05T10:27:10;66.47;;;42.03;;
32393;SDS011;18853;45.426;9.206;2023-03-05T10:30:24;60.80;;;40.95;;
32393;SDS011;18853;45.426;9.206;2023-03-05T10:32:59;55.38;;;37.75;;
32393;SDS011;18853;45.426;9.206;2023-03-05T10:43:56;48.40;;;32.35;;
32393;SDS011;18853;45.426;9.206;2023-03-05T10:46:34;49.08;;;31.20;;
32393;SDS011;18853;45.426;9.206;2023-03-05T10:51:40;46.70;;;32.22;;
32393;SDS011;18853;45.426;9.206;2023-03-05T10:56:49;46.25;;;29.77;;
32393;SDS011;18853;45.426;9.206;2023-03-05T10:59:25;49.33;;;29.73;;
32393;SDS011;18853;45.426;9.206;2023-03-05T11:02:03;44.30;;;30.02;;
32393;SDS011;18853;45.426;9.206;2023-03-05T11:04:32;43.60;;;29.63;;
32393;SDS011;18853;45.426;9.206;2023-03-05T11:07:04;47.72;;;28.55;;
32393;SDS011;18853;45.426;9.206;2023-03-05T11:12:28;47.45;;;29.35;;
32393;SDS011;18853;45.426;9.206;2023-03-05T11:18:17;46.33;;;30.10;;
32393;SDS011;18853;45.426;9.206;2023-03-05T11:20:32;45.90;;;31.30;;
32393;SDS011;18853;45.426;9.206;2023-03-05T11:28:27;47.35;;;30.73;;
32393;SDS011;18853;45.426;9.206;2023-03-05T11:33:25;49.47;;;32.08;;
32393;SDS011;18853;45.426;9.206;2023-03-05T11:35:52;47.40;;;31.60;;
32393;SDS011;18853;45.426;9.206;2023-03-05T11:38:36;47.42;;;31.23;;
32393;SDS011;18853;45.426;9.206;2023-03-05T11:41:15;48.17;;;32.50;;
32393;SDS011;18853;45.426;9.206;2023-03-05T11:43:45;47.80;;;31.40;;
32393;SDS011;18853;45.426;9.206;2023-03-05T11:46:13;48.08;;;32.28;;
32393;SDS011;18853;45.426;9.206;2023-03-05T11:48:40;53.78;;;35.03;;
32393;SDS011;18853;45.426;9.206;2023-03-05T11:51:14;49.95;;;32.28;;
32393;SDS011;18853;45.426;9.206;2023-03-05T11:53:44;44.42;;;29.50;;
32393;SDS011;18853;45.426;9.206;2023-03-05T11:56:26;48.53;;;31.85;;
32393;SDS011;18853;45.426;9.206;2023-03-05T12:01:28;44.50;;;28.92;;
32393;SDS011;18853;45.426;9.206;2023-03-05T12:03:56;51.28;;;31.90;;
32393;SDS011;18853;45.426;9.206;2023-03-05T12:09:15;45.88;;;30.05;;
32393;SDS011;18853;45.426;9.206;2023-03-05T12:11:48;50.42;;;32.47;;
32393;SDS011;18853;45.426;9.206;2023-03-05T12:14:25;44.60;;;31.23;;
32393;SDS011;18853;45.426;9.206;2023-03-05T12:17:12;42.67;;;30.65;;
32393;SDS011;18853;45.426;9.206;2023-03-05T12:22:38;49.15;;;32.08;;
32393;SDS011;18853;45.426;9.206;2023-03-05T12:27:51;47.00;;;30.63;;
32393;SDS011;18853;45.426;9.206;2023-03-05T12:32:58;44.80;;;30.25;;
32393;SDS011;18853;45.426;9.206;2023-03-05T12:35:32;46.47;;;30.25;;
32393;SDS011;18853;45.426;9.206;2023-03-05T12:38:01;41.75;;;28.20;;
32393;SDS011;18853;45.426;9.206;2023-03-05T12:40:30;40.75;;;27.10;;
32393;SDS011;18853;45.426;9.206;2023-03-05T12:45:30;41.13;;;27.27;;
32393;SDS011;18853;45.426;9.206;2023-03-05T12:58:08;35.10;;;24.30;;
32393;SDS011;18853;45.426;9.206;2023-03-05T13:00:52;39.75;;;24.73;;
32393;SDS011;18853;45.426;9.206;2023-03-05T13:03:35;38.55;;;24.90;;
32393;SDS011;18853;45.426;9.206;2023-03-05T13:06:32;34.90;;;23.63;;
32393;SDS011;18853;45.426;9.206;2023-03-05T13:09:15;38.65;;;23.40;;
32393;SDS011;18853;45.426;9.206;2023-03-05T13:11:49;38.35;;;24.73;;
32393;SDS011;18853;45.426;9.206;2023-03-05T13:17:27;38.17;;;25.38;;
32393;SDS011;18853;45.426;9.206;2023-03-05T13:20:29;36.03;;;25.15;;
32393;SDS011;18853;45.426;9.206;2023-03-05T13:28:39;38.83;;;24.15;;
32393;SDS011;18853;45.426;9.206;2023-03-05T13:31:16;33.47;;;23.65;;
32393;SDS011;18853;45.426;9.206;2023-03-05T13:33:51;34.70;;;23.10;;
32393;SDS011;18853;45.426;9.206;2023-03-05T13:36:20;34.80;;;23.90;;
32393;SDS011;18853;45.426;9.206;2023-03-05T13:38:48;38.35;;;24.95;;
32393;SDS011;18853;45.426;9.206;2023-03-05T13:46:21;40.03;;;24.65;;
32393;SDS011;18853;45.426;9.206;2023-03-05T13:48:48;36.28;;;25.75;;
32393;SDS011;18853;45.426;9.206;2023-03-05T13:51:15;36.58;;;23.88;;
32393;SDS011;18853;45.426;9.206;2023-03-05T13:53:41;34.22;;;22.95;;
32393;SDS011;18853;45.426;9.206;2023-03-05T13:56:12;33.10;;;22.60;;
32393;SDS011;18853;45.426;9.206;2023-03-05T13:58:50;34.10;;;23.02;;
32393;SDS011;18853;45.426;9.206;2023-03-05T14:03:48;43.30;;;29.38;;
32393;SDS011;18853;45.426;9.206;2023-03-05T14:06:16;35.70;;;24.55;;
32393;SDS011;18853;45.426;9.206;2023-03-05T14:08:48;31.50;;;21.88;;
32393;SDS011;18853;45.426;9.206;2023-03-05T14:11:19;31.75;;;21.15;;
32393;SDS011;18853;45.426;9.206;2023-03-05T14:13:45;31.50;;;20.27;;
32393;SDS011;18853;45.426;9.206;2023-03-05T14:16:25;31.60;;;21.10;;
32393;SDS011;18853;45.426;9.206;2023-03-05T14:18:58;31.63;;;20.30;;
32393;SDS011;18853;45.426;9.206;2023-03-05T14:24:28;35.88;;;22.95;;
32393;SDS011;18853;45.426;9.206;2023-03-05T14:26:59;33.10;;;22.23;;
32393;SDS011;18853;45.426;9.206;2023-03-05T14:29:29;29.42;;;19.50;;
32393;SDS011;18853;45.426;9.206;2023-03-05T14:31:58;31.80;;;20.90;;
32393;SDS011;18853;45.426;9.206;2023-03-05T14:34:30;30.80;;;21.25;;
32393;SDS011;18853;45.426;9.206;2023-03-05T14:37:05;31.83;;;21.35;;
32393;SDS011;18853;45.426;9.206;2023-03-05T14:39:53;29.67;;;20.38;;
32393;SDS011;18853;45.426;9.206;2023-03-05T14:45:20;29.90;;;19.08;;
32393;SDS011;18853;45.426;9.206;2023-03-05T14:47:49;24.48;;;18.30;;
32393;SDS011;18853;45.426;9.206;2023-03-05T14:50:17;29.75;;;18.80;;
32393;SDS011;18853;45.426;9.206;2023-03-05T14:52:45;31.15;;;19.35;;
32393;SDS011;18853;45.426;9.206;2023-03-05T14:55:13;25.77;;;18.02;;
32393;SDS011;18853;45.426;9.206;2023-03-05T14:57:40;31.35;;;20.48;;
32393;SDS011;18853;45.426;9.206;2023-03-05T15:00:16;32.78;;;19.70;;
32393;SDS011;18853;45.426;9.206;2023-03-05T15:02:43;26.40;;;18.02;;
32393;SDS011;18853;45.426;9.206;2023-03-05T15:05:09;30.92;;;20.67;;
32393;SDS011;18853;45.426;9.206;2023-03-05T15:07:35;27.92;;;18.27;;
32393;SDS011;18853;45.426;9.206;2023-03-05T15:10:01;28.58;;;20.08;;
32393;SDS011;18853;45.426;9.206;2023-03-05T15:12:28;25.80;;;16.88;;
32393;SDS011;18853;45.426;9.206;2023-03-05T15:14:54;32.42;;;20.30;;
32393;SDS011;18853;45.426;9.206;2023-03-05T15:17:21;28.13;;;18.13;;
32393;SDS011;18853;45.426;9.206;2023-03-05T15:19:52;30.58;;;19.45;;
32393;SDS011;18853;45.426;9.206;2023-03-05T15:22:17;31.42;;;19.98;;
32393;SDS011;18853;45.426;9.206;2023-03-05T15:24:43;31.60;;;20.33;;
32393;SDS011;18853;45.426;9.206;2023-03-05T15:27:09;31.30;;;20.00;;
32393;SDS011;18853;45.426;9.206;2023-03-05T15:29:35;27.10;;;18.88;;
32393;SDS011;18853;45.426;9.206;2023-03-05T15:32:01;28.90;;;19.90;;
32393;SDS011;18853;45.426;9.206;2023-03-05T15:34:28;31.52;;;20.17;;
32393;SDS011;18853;45.426;9.206;2023-03-05T15:36:54;30.48;;;18.23;;
32393;SDS011;18853;45.426;9.206;2023-03-05T15:39:20;28.35;;;19.73;;
32393;SDS011;18853;45.426;9.206;2023-03-05T15:41:48;30.50;;;20.55;;
32393;SDS011;18853;45.426;9.206;2023-03-05T15:44:14;27.45;;;19.35;;
32393;SDS011;18853;45.426;9.206;2023-03-05T15:46:40;29.55;;;18.20;;
32393;SDS011;18853;45.426;9.206;2023-03-05T15:49:06;26.90;;;17.45;;
32393;SDS011;18853;45.426;9.206;2023-03-05T15:51:31;26.40;;;17.20;;
32393;SDS011;18853;45.426;9.206;2023-03-05T15:53:57;27.92;;;17.20;;
32393;SDS011;18853;45.426;9.206;2023-03-05T15:56:22;25.60;;;18.05;;
32393;SDS011;18853;45.426;9.206;2023-03-05T15:58:48;27.15;;;17.77;;
32393;SDS011;18853;45.426;9.206;2023-03-05T16:01:17;31.65;;;19.73;;
32393;SDS011;18853;45.426;9.206;2023-03-05T16:03:44;30.30;;;19.33;;
32393;SDS011;18853;45.426;9.206;2023-03-05T16:06:10;29.40;;;18.20;;
32393;SDS011;18853;45.426;9.206;2023-03-05T16:08:38;30.80;;;18.88;;
32393;SDS011;18853;45.426;9.206;2023-03-05T16:11:05;30.13;;;18.80;;
32393;SDS011;18853;45.426;9.206;2023-03-05T16:13:32;26.17;;;17.38;;
32393;SDS011;18853;45.426;9.206;2023-03-05T16:15:58;29.02;;;19.00;;
32393;SDS011;18853;45.426;9.206;2023-03-05T16:18:24;29.02;;;18.90;;